Time;durP1;ratioP1;P1;durP2;ratioP2;P2;SDS_P1;SDS_P2;PMS_P1;PMS_P2;Temp;Humidity;BMP_temperature;BMP_pressure;BME280_temperature;BME280_humidity;BME280_pressure;Samples;Min_cycle;Max_cycle;Signal;HPM_P1;HPM_P2
2021/05/18 00:01:24;;;;;;;1.77;1.67;;;10.60;99.90;;;;;;6271067;28;20075;-77
2021/05/18 00:04:27;;;;;;;3.60;1.80;;;10.60;99.90;;;;;;6271160;28;20231;-77
2021/05/18 00:07:28;;;;;;;3.58;1.55;;;10.60;99.90;;;;;;6271370;28;20095;-77
2021/05/18 00:13:54;;;;;;;2.83;1.65;;;10.70;99.90;;;;;;6271173;28;20128;-77
2021/05/18 00:16:57;;;;;;;2.30;1.80;;;10.70;99.90;;;;;;6270781;28;20057;-76
2021/05/18 00:19:59;;;;;;;2.65;1.77;;;10.70;99.90;;;;;;6270616;28;20495;-77
2021/05/18 00:23:01;;;;;;;4.85;1.95;;;10.70;99.90;;;;;;6271202;28;20052;-76
2021/05/18 00:26:03;;;;;;;5.82;3.50;;;10.70;99.90;;;;;;6270895;28;20079;-77
2021/05/18 00:29:06;;;;;;;2.35;1.77;;;10.70;99.90;;;;;;6275261;28;20298;-76
2021/05/18 00:32:07;;;;;;;2.28;1.40;;;10.60;99.90;;;;;;6275352;28;20160;-76
2021/05/18 00:35:12;;;;;;;2.40;1.65;;;10.60;99.90;;;;;;6276129;28;20132;-76
2021/05/18 00:38:15;;;;;;;2.22;1.83;;;10.60;99.90;;;;;;6275325;28;20045;-76
2021/05/18 00:41:17;;;;;;;2.90;1.40;;;10.50;99.90;;;;;;6275171;28;20128;-76
2021/05/18 00:44:18;;;;;;;3.75;2.00;;;10.50;99.90;;;;;;6275383;28;20044;-76
2021/05/18 00:47:20;;;;;;;2.60;2.35;;;10.50;99.90;;;;;;6276151;28;20056;-77
2021/05/18 00:50:22;;;;;;;2.97;2.13;;;10.50;99.90;;;;;;6274636;28;20199;-76
2021/05/18 00:53:24;;;;;;;3.65;2.47;;;10.40;99.90;;;;;;6274981;28;20049;-76
2021/05/18 00:58:25;;;;;;;4.88;2.67;;;10.40;99.90;;;;;;6274912;28;20605;-77
2021/05/18 00:59:54;;;;;;;2.83;2.08;;;10.40;99.90;;;;;;6274394;28;20045;-76
2021/05/18 01:02:55;;;;;;;2.80;2.60;;;10.40;99.90;;;;;;6275936;28;20139;-77
2021/05/18 01:09:18;;;;;;;5.10;2.75;;;10.40;99.90;;;;;;6274799;28;20044;-77
2021/05/18 01:12:19;;;;;;;5.53;2.28;;;10.40;99.90;;;;;;6274843;28;20486;-77
2021/05/18 01:15:20;;;;;;;4.32;2.20;;;10.40;99.90;;;;;;6274848;28;20136;-77
2021/05/18 01:18:22;;;;;;;2.28;2.08;;;10.40;99.90;;;;;;6274944;28;20124;-77
2021/05/18 01:21:24;;;;;;;2.50;2.15;;;10.40;99.90;;;;;;6274733;28;20056;-77
2021/05/18 01:24:26;;;;;;;4.28;2.40;;;10.30;99.90;;;;;;6274549;28;20465;-77
2021/05/18 01:27:27;;;;;;;4.88;2.72;;;10.40;99.90;;;;;;6275058;28;20053;-77
2021/05/18 01:30:28;;;;;;;4.68;2.17;;;10.40;99.90;;;;;;6273860;28;20123;-77
2021/05/18 01:33:30;;;;;;;2.47;1.98;;;10.30;99.90;;;;;;6273801;28;20213;-76
2021/05/18 01:36:33;;;;;;;2.80;2.20;;;10.20;99.90;;;;;;6274372;28;20129;-75
2021/05/18 01:42:56;;;;;;;8.52;1.98;;;10.20;99.90;;;;;;6273940;28;20499;-76
2021/05/18 01:45:57;;;;;;;3.05;2.17;;;10.20;99.90;;;;;;6273735;28;20055;-76
2021/05/18 01:49:02;;;;;;;5.63;2.20;;;10.20;99.90;;;;;;6273680;28;20120;-76
2021/05/18 01:52:07;;;;;;;3.22;2.28;;;10.20;99.90;;;;;;6281822;28;20080;-76
2021/05/18 01:55:11;;;;;;;4.53;2.30;;;10.20;99.90;;;;;;6277886;28;20511;-76
2021/05/18 01:58:12;;;;;;;6.70;2.45;;;10.10;99.90;;;;;;6273478;28;20045;-76
2021/05/18 02:01:13;;;;;;;3.00;2.38;;;10.10;99.90;;;;;;6273385;28;20060;-76
2021/05/18 02:04:23;;;;;;;6.30;2.38;;;10.20;99.90;;;;;;6273357;28;20041;-77
2021/05/18 02:07:28;;;;;;;2.75;2.13;;;10.10;99.90;;;;;;6273296;28;20571;-76
2021/05/18 02:10:29;;;;;;;5.03;2.47;;;10.10;99.90;;;;;;6273204;28;20046;-76
2021/05/18 02:13:31;;;;;;;4.22;2.28;;;10.10;99.90;;;;;;6273204;28;20048;-76
2021/05/18 02:16:35;;;;;;;5.53;2.35;;;10.20;99.90;;;;;;6272920;28;20414;-76
2021/05/18 02:20:05;;;;;;;5.07;2.33;;;10.20;99.90;;;;;;6273102;28;20136;-76
2021/05/18 02:26:27;;;;;;;4.47;2.85;;;10.10;99.90;;;;;;6272877;28;20045;-76
2021/05/18 02:29:29;;;;;;;3.90;2.25;;;10.10;99.90;;;;;;6272517;28;20041;-76
2021/05/18 02:32:31;;;;;;;2.67;2.30;;;10.10;99.90;;;;;;6272746;28;20045;-76
2021/05/18 02:35:33;;;;;;;4.60;1.70;;;10.20;99.90;;;;;;6273367;28;20085;-76
2021/05/18 02:38:35;;;;;;;4.07;3.25;;;10.20;99.90;;;;;;6272184;28;20045;-76
2021/05/18 02:41:36;;;;;;;3.08;2.25;;;10.10;99.90;;;;;;6273404;28;20055;-76
2021/05/18 02:44:42;;;;;;;5.15;2.53;;;10.10;99.90;;;;;;6271936;28;20080;-76
2021/05/18 02:51:03;;;;;;;5.15;3.35;;;10.10;99.90;;;;;;6271702;28;20053;-77
2021/05/18 02:54:06;;;;;;;4.93;3.17;;;10.10;99.90;;;;;;6272222;28;20053;-76
2021/05/18 02:57:10;;;;;;;3.72;2.85;;;10.20;99.90;;;;;;6272455;28;20132;-76
2021/05/18 03:00:15;;;;;;;4.00;2.95;;;10.20;99.90;;;;;;6271879;28;20052;-76
2021/05/18 03:03:16;;;;;;;3.65;2.78;;;10.20;99.90;;;;;;6272623;28;20074;-77
2021/05/18 03:06:18;;;;;;;3.03;2.65;;;10.20;99.90;;;;;;6271638;28;20069;-76
2021/05/18 03:09:22;;;;;;;5.57;2.80;;;10.20;99.90;;;;;;6271828;28;20124;-76
2021/05/18 03:12:24;;;;;;;4.97;2.85;;;10.20;99.90;;;;;;6272261;28;20037;-76
2021/05/18 03:15:25;;;;;;;6.70;3.83;;;10.10;99.90;;;;;;6272569;28;20553;-76
2021/05/18 03:18:26;;;;;;;3.67;3.10;;;10.10;99.90;;;;;;6271761;28;20091;-76
2021/05/18 03:21:28;;;;;;;3.40;2.35;;;10.10;99.90;;;;;;6271580;28;20052;-76
2021/05/18 03:24:30;;;;;;;3.05;2.70;;;10.10;99.90;;;;;;6271721;28;20124;-76
2021/05/18 03:27:31;;;;;;;6.28;3.20;;;10.10;99.90;;;;;;6272188;28;20064;-76
2021/05/18 03:30:47;;;;;;;3.85;2.53;;;10.10;99.90;;;;;;6271357;28;20060;-77
2021/05/18 03:37:11;;;;;;;2.78;2.45;;;10.10;99.90;;;;;;6237987;28;20647;-76
2021/05/18 03:40:15;;;;;;;3.85;2.75;;;10.10;99.90;;;;;;6271141;28;20049;-76
2021/05/18 03:43:32;;;;;;;4.38;2.88;;;10.00;99.90;;;;;;6271681;28;20056;-76
2021/05/18 04:03:15;;;;;;;3.25;2.95;;;10.20;99.90;;;;;;6276241;28;20446;-76
2021/05/18 04:13:06;;;;;;;4.60;2.60;;;10.30;99.90;;;;;;6276230;28;20083;-77
2021/05/18 04:19:31;;;;;;;4.57;3.25;;;10.50;99.90;;;;;;6276090;28;20519;-77
2021/05/18 04:22:46;;;;;;;6.43;3.15;;;10.50;99.90;;;;;;6275598;28;20056;-76
2021/05/18 04:39:27;;;;;;;7.20;3.70;;;10.80;99.90;;;;;;6275771;28;20120;-76
2021/05/18 04:52:29;;;;;;;4.88;2.53;;;11.10;99.90;;;;;;6275095;28;20064;-76
2021/05/18 04:59:04;;;;;;;6.55;4.32;;;11.00;99.90;;;;;;6274529;28;20041;-76
2021/05/18 05:02:33;;;;;;;4.38;3.00;;;10.90;99.90;;;;;;6275096;28;20115;-77
2021/05/18 05:08:54;;;;;;;3.85;2.90;;;10.80;99.90;;;;;;6273963;28;20041;-76
2021/05/18 05:15:15;;;;;;;4.50;3.42;;;10.80;99.90;;;;;;6275101;28;20499;-76
2021/05/18 05:18:17;;;;;;;3.38;3.00;;;10.70;99.90;;;;;;6274922;28;20128;-76
2021/05/18 05:21:21;;;;;;;4.60;2.88;;;10.80;99.90;;;;;;6274520;28;20041;-77
2021/05/18 05:24:22;;;;;;;3.97;2.92;;;10.80;99.90;;;;;;6274800;28;20044;-76
2021/05/18 05:27:24;;;;;;;5.00;3.00;;;10.80;99.90;;;;;;6275440;28;20085;-77
2021/05/18 05:30:25;;;;;;;3.50;2.42;;;10.80;99.90;;;;;;6276751;28;20057;-77
2021/05/18 05:33:27;;;;;;;2.63;2.42;;;10.80;99.90;;;;;;6277323;28;20114;-76
2021/05/18 05:36:29;;;;;;;2.78;2.20;;;10.90;99.90;;;;;;6274999;28;20056;-76
2021/05/18 05:39:30;;;;;;;2.80;2.20;;;10.90;99.90;;;;;;6276975;28;20045;-76
2021/05/18 05:42:31;;;;;;;2.35;1.88;;;11.00;99.90;;;;;;6277991;28;20127;-76
2021/05/18 05:45:33;;;;;;;1.95;1.80;;;11.00;99.90;;;;;;6277670;28;20128;-77
2021/05/18 05:48:35;;;;;;;4.50;2.33;;;11.00;99.90;;;;;;6278591;28;20474;-75
2021/05/18 05:51:37;;;;;;;3.30;1.60;;;11.20;99.90;;;;;;6282611;28;20072;-76
2021/05/18 05:54:38;;;;;;;5.32;1.48;;;11.30;99.90;;;;;;6276682;28;20499;-76
2021/05/18 05:57:39;;;;;;;1.77;1.67;;;11.30;99.90;;;;;;6273550;28;20079;-76
2021/05/18 06:00:41;;;;;;;4.82;1.58;;;11.30;99.90;;;;;;6272478;28;20487;-76
2021/05/18 06:03:44;;;;;;;4.43;1.70;;;11.40;99.90;;;;;;6269424;28;20053;-76
2021/05/18 06:06:45;;;;;;;2.63;1.92;;;11.70;99.90;;;;;;6268078;28;20134;-76
2021/05/18 06:09:48;;;;;;;4.70;2.10;;;12.00;99.90;;;;;;6273204;28;20513;-76
2021/05/18 06:12:58;;;;;;;2.63;1.60;;;12.70;99.90;;;;;;6272462;28;20506;-76
2021/05/18 06:16:35;;;;;;;5.05;1.80;;;13.70;99.90;;;;;;6272609;28;20557;-76
2021/05/18 06:43:29;;;;;;;6.85;1.05;;;15.10;99.90;;;;;;6200156;28;20050;-77
2021/05/18 06:46:45;;;;;;;4.20;1.20;;;15.70;99.90;;;;;;6272222;28;20049;-77
2021/05/18 06:49:55;;;;;;;2.17;1.20;;;16.30;97.40;;;;;;6272451;28;20052;-77
2021/05/18 06:52:58;;;;;;;2.95;1.10;;;16.30;95.10;;;;;;6273370;28;20049;-77
2021/05/18 06:56:01;;;;;;;2.47;0.95;;;16.10;94.60;;;;;;6272706;28;20131;-77
2021/05/18 07:02:23;;;;;;;2.75;1.95;;;15.70;94.40;;;;;;6272156;28;20123;-77
2021/05/18 07:05:32;;;;;;;6.85;1.50;;;15.80;93.50;;;;;;6271839;28;20045;-77
2021/05/18 07:11:53;;;;;;;4.57;1.55;;;16.50;91.40;;;;;;6271772;28;20056;-77
2021/05/18 07:14:58;;;;;;;2.58;1.10;;;16.90;91.20;;;;;;6272773;28;20052;-77
2021/05/18 07:17:59;;;;;;;6.50;1.60;;;16.30;90.10;;;;;;6271963;28;20052;-77
2021/05/18 07:21:02;;;;;;;5.07;2.45;;;15.90;91.70;;;;;;6272558;28;20073;-78
2021/05/18 07:24:09;;;;;;;2.05;1.30;;;15.80;91.60;;;;;;6272200;28;20053;-78
2021/05/18 07:27:11;;;;;;;2.05;1.30;;;15.70;91.70;;;;;;6272712;28;20049;-77
2021/05/18 07:30:14;;;;;;;1.00;0.90;;;15.90;92.40;;;;;;6272549;28;20045;-77
2021/05/18 07:33:16;;;;;;;2.58;1.17;;;16.40;91.20;;;;;;6272451;28;20217;-77
2021/05/18 07:36:17;;;;;;;1.73;1.00;;;16.30;90.80;;;;;;6275296;28;20092;-77
2021/05/18 07:39:19;;;;;;;5.40;1.45;;;15.90;90.60;;;;;;6280941;28;20080;-77
2021/05/18 07:42:20;;;;;;;6.78;1.80;;;15.60;90.80;;;;;;6280440;28;20467;-77
2021/05/18 07:45:26;;;;;;;3.22;1.23;;;15.30;91.60;;;;;;6279926;28;20072;-77
2021/05/18 07:48:32;;;;;;;3.88;1.30;;;15.20;91.80;;;;;;6281928;28;20045;-78
2021/05/18 07:51:46;;;;;;;10.23;2.63;;;15.40;92.40;;;;;;6281424;28;20067;-78
2021/05/18 08:08:05;;;;;;;2.40;1.38;;;18.20;81.50;;;;;;6281788;28;20468;-78
2021/05/18 08:11:07;;;;;;;4.30;1.17;;;18.40;80.00;;;;;;6279924;28;20416;-77
2021/05/18 08:14:09;;;;;;;4.18;1.35;;;18.10;77.10;;;;;;6279402;28;20056;-77
2021/05/18 08:17:24;;;;;;;9.77;1.77;;;17.60;77.90;;;;;;6279591;28;20052;-77
2021/05/18 08:20:44;;;;;;;4.20;1.40;;;17.10;80.50;;;;;;6279078;28;20041;-77
2021/05/18 10:35:04;;;;;;;4.28;2.00;;;18.50;72.20;;;;;;6252768;28;20241;-76
2021/05/18 10:38:07;;;;;;;5.68;2.13;;;19.10;71.20;;;;;;6269939;28;20048;-76
2021/05/18 10:41:15;;;;;;;2.85;1.67;;;19.20;62.50;;;;;;6272640;28;20075;-76
2021/05/18 10:44:17;;;;;;;3.45;0.88;;;18.80;60.60;;;;;;6272891;28;20068;-77
2021/05/18 10:47:19;;;;;;;1.55;0.68;;;18.60;61.10;;;;;;6273812;28;20135;-77
2021/05/18 10:50:20;;;;;;;2.25;1.33;;;18.80;59.60;;;;;;6271058;28;20461;-76
2021/05/18 10:53:21;;;;;;;2.47;0.80;;;18.60;62.10;;;;;;6272345;28;20069;-76
2021/05/18 10:56:24;;;;;;;4.53;1.20;;;18.80;62.10;;;;;;6272304;28;20036;-76
2021/05/18 10:59:27;;;;;;;2.83;0.88;;;19.50;58.50;;;;;;6273152;28;20136;-76
2021/05/18 11:02:32;;;;;;;8.15;1.10;;;20.00;60.20;;;;;;6272498;28;20478;-76
2021/05/18 11:05:34;;;;;;;2.10;1.10;;;19.90;56.40;;;;;;6274740;28;20052;-78
2021/05/18 11:08:35;;;;;;;1.75;0.85;;;19.70;59.60;;;;;;6269800;28;20702;-80
2021/05/18 11:11:38;;;;;;;7.07;1.27;;;19.80;59.20;;;;;;6250403;28;20136;-78
2021/05/18 11:14:51;;;;;;;1.52;0.88;;;19.90;59.30;;;;;;6252958;28;20077;-78
2021/05/18 11:17:53;;;;;;;5.53;0.70;;;20.20;57.80;;;;;;6250449;28;20067;-78
2021/05/18 11:20:59;;;;;;;2.67;0.60;;;20.20;53.90;;;;;;6249531;28;20129;-78
2021/05/18 11:24:09;;;;;;;2.85;1.08;;;19.80;55.20;;;;;;6252187;28;20091;-78
2021/05/18 11:27:11;;;;;;;1.77;0.73;;;19.40;56.90;;;;;;6252630;28;20094;-77
2021/05/18 11:30:26;;;;;;;2.55;0.90;;;19.00;57.30;;;;;;6251389;28;20184;-77
2021/05/18 11:33:33;;;;;;;1.17;0.75;;;18.90;57.30;;;;;;6252656;28;20103;-78
2021/05/18 11:36:37;;;;;;;1.58;0.70;;;19.20;57.90;;;;;;6258954;28;20051;-78
2021/05/18 11:39:39;;;;;;;2.90;0.85;;;19.30;56.80;;;;;;6278891;28;20048;-78
2021/05/18 11:42:42;;;;;;;1.35;0.82;;;19.30;55.60;;;;;;6279345;28;20467;-78
2021/05/18 11:45:44;;;;;;;2.90;0.63;;;19.00;55.30;;;;;;6277518;28;20098;-79
2021/05/18 11:48:54;;;;;;;0.82;0.63;;;18.60;56.30;;;;;;6276019;28;20049;-78
2021/05/18 11:51:57;;;;;;;5.25;1.10;;;18.60;57.60;;;;;;6276598;28;20086;-77
2021/05/18 11:54:58;;;;;;;2.42;0.55;;;18.50;57.50;;;;;;6275393;28;20506;-78
2021/05/18 11:58:02;;;;;;;2.67;0.75;;;18.30;58.60;;;;;;6273854;28;20571;-78
2021/05/18 12:01:07;;;;;;;1.30;0.40;;;18.60;58.40;;;;;;6282112;28;20036;-77
2021/05/18 12:04:10;;;;;;;1.92;1.00;;;18.90;56.10;;;;;;6303817;28;20036;-77
2021/05/18 12:07:12;;;;;;;2.13;0.60;;;19.00;56.10;;;;;;6303885;28;20029;-77
2021/05/18 12:10:30;;;;;;;1.13;0.63;;;19.30;53.90;;;;;;6303065;28;20108;-76
2021/05/18 12:13:32;;;;;;;2.53;0.88;;;19.30;54.00;;;;;;6303462;28;20067;-77
2021/05/18 12:16:40;;;;;;;3.83;1.10;;;19.10;54.70;;;;;;6303128;28;20035;-77
2021/05/18 12:19:42;;;;;;;3.83;0.70;;;18.90;55.60;;;;;;6303126;28;20044;-77
2021/05/18 12:22:44;;;;;;;1.42;0.70;;;18.80;54.30;;;;;;6302786;28;20067;-78
2021/05/18 12:25:46;;;;;;;1.92;0.63;;;18.70;54.50;;;;;;6306984;28;20069;-77
2021/05/18 12:28:59;;;;;;;1.95;0.80;;;18.50;55.40;;;;;;6278019;28;20391;-77
2021/05/18 12:32:17;;;;;;;3.10;1.00;;;18.60;56.90;;;;;;6278078;28;20053;-77
2021/05/18 12:35:22;;;;;;;1.30;0.77;;;18.90;56.90;;;;;;6277559;28;20052;-77
2021/05/18 12:38:23;;;;;;;1.83;0.70;;;19.30;53.90;;;;;;6274091;28;20100;-77
2021/05/18 12:41:24;;;;;;;5.40;1.00;;;19.50;52.80;;;;;;6277306;28;20041;-77
2021/05/18 12:44:29;;;;;;;9.75;3.40;;;19.60;50.40;;;;;;6275793;28;20072;-77
2021/05/18 12:47:32;;;;;;;2.15;0.70;;;19.30;49.90;;;;;;6276980;28;20111;-78
2021/05/18 12:50:40;;;;;;;2.92;0.60;;;19.20;50.90;;;;;;6277970;28;20051;-78
2021/05/18 12:53:41;;;;;;;0.82;0.50;;;19.50;51.20;;;;;;6278929;28;20069;-78
2021/05/18 12:56:42;;;;;;;1.55;0.55;;;19.70;51.50;;;;;;6277941;28;20049;-77
2021/05/18 13:00:12;;;;;;;0.82;0.45;;;19.70;52.30;;;;;;6279962;28;20510;-77
2021/05/18 13:03:16;;;;;;;0.85;0.50;;;19.80;52.00;;;;;;6244165;28;20527;-78
2021/05/18 13:06:19;;;;;;;1.40;0.57;;;19.90;51.40;;;;;;6277202;28;20140;-77
2021/05/18 13:09:21;;;;;;;2.65;0.77;;;19.90;51.00;;;;;;6273971;28;20041;-77
2021/05/18 13:12:23;;;;;;;1.65;0.95;;;19.80;51.00;;;;;;6274480;28;20122;-76
2021/05/18 13:15:25;;;;;;;2.47;0.77;;;19.90;50.10;;;;;;6274264;28;20514;-77
2021/05/18 13:18:26;;;;;;;5.10;4.70;;;19.90;50.80;;;;;;6274183;28;20083;-76
2021/05/18 13:21:33;;;;;;;1.55;1.00;;;20.00;50.40;;;;;;6274754;28;20066;-78
2021/05/18 13:27:56;;;;;;;1.02;0.50;;;19.70;50.90;;;;;;6273612;28;20048;-75
2021/05/18 13:30:58;;;;;;;2.05;0.98;;;19.30;50.80;;;;;;6274747;28;20041;-77
2021/05/18 13:34:00;;;;;;;2.28;0.85;;;18.50;58.40;;;;;;6273103;28;20064;-76
2021/05/18 13:37:01;;;;;;;3.78;1.77;;;17.40;64.90;;;;;;6273304;28;20127;-76
2021/05/18 13:40:03;;;;;;;0.95;0.57;;;16.70;67.60;;;;;;6272832;28;20124;-75
2021/05/18 13:43:05;;;;;;;0.63;0.60;;;16.60;71.70;;;;;;6273785;28;20140;-76
2021/05/18 13:46:08;;;;;;;1.90;0.60;;;17.10;69.00;;;;;;6273705;28;20132;-75
2021/05/18 13:49:09;;;;;;;1.50;0.65;;;17.60;67.40;;;;;;6273232;28;20045;-77
2021/05/18 13:52:13;;;;;;;1.30;0.60;;;18.00;65.60;;;;;;6274050;28;20107;-76
2021/05/18 13:55:14;;;;;;;0.38;0.20;;;18.30;63.70;;;;;;6274590;28;20080;-76
2021/05/18 13:58:15;;;;;;;0.85;0.50;;;18.60;57.70;;;;;;6273297;28;20510;-76
2021/05/18 14:01:18;;;;;;;0.90;0.70;;;18.60;57.20;;;;;;6273245;28;20574;-78
2021/05/18 14:04:20;;;;;;;2.25;0.73;;;18.60;56.50;;;;;;6274645;28;20075;-77
2021/05/18 14:08:03;;;;;;;0.60;0.52;;;18.50;54.10;;;;;;6275195;28;20084;-77
2021/05/18 14:11:06;;;;;;;0.80;0.52;;;18.30;53.60;;;;;;6274065;28;20045;-77
2021/05/18 14:14:08;;;;;;;1.23;0.90;;;17.90;55.70;;;;;;6276514;28;20048;-77
2021/05/18 14:17:10;;;;;;;1.70;0.73;;;17.70;56.40;;;;;;6277220;28;20554;-77
2021/05/18 14:20:12;;;;;;;2.20;0.57;;;17.70;56.50;;;;;;6278132;28;20045;-76
2021/05/18 14:23:16;;;;;;;0.88;0.88;;;18.00;55.20;;;;;;6279179;28;20136;-77
2021/05/18 14:26:18;;;;;;;4.03;0.77;;;18.00;55.70;;;;;;6282757;28;20055;-76
2021/05/18 14:29:22;;;;;;;1.77;0.43;;;18.00;56.90;;;;;;6285187;28;20489;-76
2021/05/18 14:32:25;;;;;;;1.13;0.60;;;18.10;56.20;;;;;;6277860;28;20073;-76
2021/05/18 14:35:28;;;;;;;3.05;0.70;;;18.20;55.60;;;;;;6273277;28;20053;-76
2021/05/18 14:38:32;;;;;;;2.53;0.95;;;18.20;55.20;;;;;;6271991;28;20057;-76
2021/05/18 14:44:53;;;;;;;0.85;0.30;;;18.50;55.70;;;;;;6272298;28;20044;-76
2021/05/18 14:48:14;;;;;;;0.75;0.30;;;18.60;54.10;;;;;;6271704;28;20103;-76
2021/05/18 14:54:57;;;;;;;1.67;0.47;;;19.10;53.00;;;;;;6271903;28;20414;-76
2021/05/18 14:57:58;;;;;;;10.93;1.73;;;19.40;51.20;;;;;;6272537;28;20132;-76
2021/05/18 15:00:59;;;;;;;2.28;0.40;;;19.80;49.90;;;;;;6271539;28;20141;-76
2021/05/18 15:04:02;;;;;;;2.25;0.40;;;20.10;49.60;;;;;;6271509;28;20049;-75
2021/05/18 15:07:06;;;;;;;2.22;1.13;;;20.20;48.60;;;;;;6271830;28;20052;-77
2021/05/18 15:10:08;;;;;;;0.70;0.40;;;20.20;49.20;;;;;;6270996;28;20622;-77
2021/05/18 15:13:09;;;;;;;1.83;0.38;;;20.10;49.90;;;;;;6272011;28;20596;-76
2021/05/18 15:16:11;;;;;;;1.20;0.40;;;20.10;50.00;;;;;;6271520;28;20574;-76
2021/05/18 15:19:16;;;;;;;0.57;0.40;;;20.10;49.10;;;;;;6271800;28;20052;-76
2021/05/18 15:22:17;;;;;;;1.30;0.50;;;19.80;49.00;;;;;;6271583;28;20526;-76
2021/05/18 15:25:21;;;;;;;0.85;0.47;;;19.50;49.50;;;;;;6270462;28;20124;-76
2021/05/18 15:28:22;;;;;;;0.77;0.57;;;19.10;51.40;;;;;;6271426;28;20453;-76
2021/05/18 15:31:24;;;;;;;1.27;0.70;;;18.80;53.90;;;;;;6271538;28;20071;-76
2021/05/18 15:34:26;;;;;;;1.85;0.85;;;18.70;55.80;;;;;;6271037;28;20554;-76
2021/05/18 15:37:27;;;;;;;1.58;0.63;;;18.80;56.80;;;;;;6271101;28;20071;-76
2021/05/18 15:40:29;;;;;;;0.80;0.40;;;18.60;56.90;;;;;;6270424;28;20045;-77
2021/05/18 15:43:30;;;;;;;2.03;0.47;;;18.20;56.60;;;;;;6265308;28;20519;-76
2021/05/18 15:46:32;;;;;;;2.03;0.52;;;18.00;58.10;;;;;;6271045;28;20572;-76
2021/05/18 15:49:34;;;;;;;2.10;1.00;;;17.80;55.80;;;;;;6270468;28;20478;-76
2021/05/18 15:52:36;;;;;;;0.73;0.50;;;17.90;56.50;;;;;;6270998;28;20123;-76
2021/05/18 15:55:37;;;;;;;0.85;0.32;;;18.10;54.70;;;;;;6271084;28;20392;-76
2021/05/18 15:58:39;;;;;;;0.43;0.30;;;18.20;53.80;;;;;;6275423;28;20130;-76
2021/05/18 16:01:41;;;;;;;0.80;0.65;;;18.40;53.30;;;;;;6276045;28;20521;-76
2021/05/18 16:04:43;;;;;;;0.98;0.32;;;18.60;53.70;;;;;;6275874;28;20127;-77
2021/05/18 16:07:51;;;;;;;1.58;0.60;;;18.80;52.60;;;;;;6276030;28;20732;-76
2021/05/18 16:10:53;;;;;;;2.20;0.70;;;19.10;51.90;;;;;;6275513;28;20045;-77
2021/05/18 16:13:55;;;;;;;0.30;0.30;;;19.30;51.70;;;;;;6275586;28;20124;-77
2021/05/18 16:16:56;;;;;;;1.70;0.50;;;19.40;52.10;;;;;;6275592;28;20511;-76
2021/05/18 16:19:58;;;;;;;1.45;0.60;;;19.20;52.20;;;;;;6274795;28;20056;-76
2021/05/18 16:23:00;;;;;;;1.15;0.40;;;19.00;53.40;;;;;;6275719;28;20463;-76
2021/05/18 16:26:01;;;;;;;2.13;0.63;;;18.90;55.30;;;;;;6275063;28;20538;-76
2021/05/18 16:29:04;;;;;;;1.45;0.70;;;18.90;54.90;;;;;;6275729;28;20073;-76
2021/05/18 16:32:05;;;;;;;0.80;0.50;;;18.80;53.80;;;;;;6275214;28;20132;-75
2021/05/18 16:35:08;;;;;;;2.58;0.93;;;18.50;53.40;;;;;;6275796;28;20101;-76
2021/05/18 16:38:10;;;;;;;3.38;1.08;;;18.40;53.70;;;;;;6275248;28;20124;-76
2021/05/18 16:41:11;;;;;;;1.15;0.40;;;18.20;55.30;;;;;;6274125;28;20535;-77
2021/05/18 16:44:13;;;;;;;5.57;2.28;;;18.10;54.80;;;;;;6274155;28;20052;-76
2021/05/18 16:47:14;;;;;;;2.13;1.17;;;17.90;55.70;;;;;;6274915;28;20108;-76
2021/05/18 16:50:16;;;;;;;0.82;0.60;;;17.60;56.90;;;;;;6274752;28;20159;-76
2021/05/18 16:53:18;;;;;;;1.30;0.68;;;17.30;57.60;;;;;;6274907;28;20068;-76
2021/05/18 16:56:19;;;;;;;0.98;0.98;;;17.20;58.40;;;;;;6275029;28;20126;-76
2021/05/18 16:59:20;;;;;;;1.70;0.70;;;17.10;59.10;;;;;;6274621;28;20639;-76
2021/05/18 17:02:22;;;;;;;2.47;1.02;;;17.00;59.50;;;;;;6274569;28;20106;-76
2021/05/18 17:05:25;;;;;;;1.55;0.47;;;16.90;60.50;;;;;;6274213;28;20045;-76
2021/05/18 17:08:27;;;;;;;1.00;0.50;;;16.90;60.30;;;;;;6273861;28;20041;-77
2021/05/18 17:11:28;;;;;;;2.15;1.08;;;16.80;60.50;;;;;;6274903;28;20072;-76
2021/05/18 17:14:30;;;;;;;1.13;1.08;;;16.70;61.30;;;;;;6274399;28;20071;-76
2021/05/18 17:17:31;;;;;;;3.50;1.10;;;16.60;62.00;;;;;;6274026;28;20045;-76
2021/05/18 17:20:36;;;;;;;2.05;0.50;;;16.50;62.20;;;;;;6274508;28;20065;-76
2021/05/18 17:23:38;;;;;;;2.53;0.80;;;16.40;61.50;;;;;;6274605;28;20087;-76
2021/05/18 17:26:40;;;;;;;1.08;0.68;;;16.20;62.00;;;;;;6274109;28;20059;-77
2021/05/18 17:29:42;;;;;;;1.13;0.50;;;16.00;60.60;;;;;;6273963;28;20129;-76
2021/05/18 17:32:43;;;;;;;0.60;0.50;;;15.90;60.60;;;;;;6274177;28;20458;-77
2021/05/18 17:35:45;;;;;;;3.22;0.90;;;15.70;61.20;;;;;;6274254;28;20140;-77
2021/05/18 17:38:47;;;;;;;1.08;0.50;;;15.60;61.40;;;;;;6273576;28;20068;-76
2021/05/18 17:41:48;;;;;;;1.52;0.93;;;15.50;61.90;;;;;;6274322;28;20049;-77
2021/05/18 17:44:51;;;;;;;1.33;0.70;;;15.50;62.20;;;;;;6273309;28;20052;-77
2021/05/18 17:47:53;;;;;;;4.68;0.88;;;15.40;62.50;;;;;;6273954;28;20454;-76
2021/05/18 17:50:55;;;;;;;0.93;0.80;;;15.40;63.00;;;;;;6274146;28;20507;-77
2021/05/18 17:53:56;;;;;;;2.38;0.50;;;15.40;63.80;;;;;;6274155;28;20068;-77
2021/05/18 17:57:01;;;;;;;1.92;0.77;;;15.30;64.10;;;;;;6274128;28;20095;-77
2021/05/18 18:00:03;;;;;;;3.88;0.88;;;15.20;64.40;;;;;;6274160;28;20049;-76
2021/05/18 18:03:05;;;;;;;29.52;19.77;;;15.10;65.80;;;;;;6274640;28;20096;-77
2021/05/18 18:06:07;;;;;;;1.80;1.70;;;15.00;67.00;;;;;;6273712;28;20478;-77
2021/05/18 18:09:08;;;;;;;1.60;1.25;;;14.90;67.60;;;;;;6273544;28;20120;-77
2021/05/18 18:12:10;;;;;;;4.15;3.92;;;14.80;67.90;;;;;;6274053;28;20051;-76
2021/05/18 18:15:12;;;;;;;5.63;5.03;;;14.70;67.60;;;;;;6274675;28;20666;-77
2021/05/18 18:18:14;;;;;;;9.20;8.50;;;14.60;66.90;;;;;;6273484;28;20209;-78
2021/05/18 18:21:17;;;;;;;6.57;2.42;;;14.50;65.60;;;;;;6272906;28;20048;-76
2021/05/18 18:24:18;;;;;;;1.88;1.55;;;14.30;65.30;;;;;;6273362;28;20076;-77
2021/05/18 18:27:21;;;;;;;1.85;1.30;;;14.20;65.90;;;;;;6274436;28;20080;-76
2021/05/18 18:30:24;;;;;;;1.00;1.00;;;14.10;66.40;;;;;;6272870;28;20068;-76
2021/05/18 18:33:25;;;;;;;1.30;1.20;;;14.10;66.30;;;;;;6273289;28;20511;-76
2021/05/18 18:36:27;;;;;;;4.30;1.92;;;14.10;66.50;;;;;;6272861;28;20143;-77
2021/05/18 18:39:29;;;;;;;1.02;0.98;;;14.10;66.40;;;;;;6273380;28;20551;-76
2021/05/18 18:42:30;;;;;;;0.60;0.60;;;14.10;65.70;;;;;;6273116;28;20045;-76
2021/05/18 18:45:35;;;;;;;1.60;0.82;;;14.00;65.20;;;;;;6271932;28;20095;-76
2021/05/18 18:48:37;;;;;;;1.67;1.17;;;14.00;65.30;;;;;;6276140;28;20370;-76
2021/05/18 18:51:39;;;;;;;1.48;0.95;;;14.00;65.90;;;;;;6275386;28;20080;-75
2021/05/18 18:54:40;;;;;;;1.65;1.25;;;14.00;66.40;;;;;;6272167;28;20067;-76
2021/05/18 18:57:42;;;;;;;0.75;0.75;;;14.00;66.70;;;;;;6271947;28;20135;-76
2021/05/18 19:00:44;;;;;;;1.23;0.80;;;14.00;66.90;;;;;;6272138;28;20049;-76
2021/05/18 19:03:47;;;;;;;1.50;0.68;;;13.90;67.70;;;;;;6272710;28;20506;-76
2021/05/18 19:06:57;;;;;;;1.17;0.85;;;13.90;68.20;;;;;;6271918;28;20049;-76
2021/05/18 19:10:11;;;;;;;1.60;0.95;;;13.90;69.70;;;;;;6272223;28;20037;-76
2021/05/18 19:13:12;;;;;;;1.15;1.05;;;13.80;70.30;;;;;;6272605;28;20136;-76
2021/05/18 19:16:13;;;;;;;0.88;0.88;;;13.70;70.70;;;;;;6272877;28;20065;-75
2021/05/18 19:19:16;;;;;;;0.95;0.73;;;13.60;70.70;;;;;;6271689;28;20561;-76
2021/05/18 19:22:18;;;;;;;3.40;0.68;;;13.60;71.00;;;;;;6271893;28;20136;-76
2021/05/18 19:25:19;;;;;;;0.65;0.65;;;13.50;72.00;;;;;;6271405;28;20514;-76
2021/05/18 19:28:21;;;;;;;0.90;0.90;;;13.40;72.30;;;;;;6272215;28;20049;-76
2021/05/18 19:31:23;;;;;;;0.88;0.88;;;13.40;72.90;;;;;;6270711;28;20049;-76
2021/05/18 19:34:26;;;;;;;0.60;0.60;;;13.40;73.10;;;;;;6271761;28;20178;-76
2021/05/18 19:37:35;;;;;;;1.63;0.82;;;13.40;73.20;;;;;;6272133;28;20539;-76
2021/05/18 19:44:02;;;;;;;2.05;0.60;;;13.30;74.60;;;;;;6271441;28;20049;-76
2021/05/18 19:50:23;;;;;;;2.17;0.77;;;13.20;75.10;;;;;;6271257;28;20041;-76
2021/05/18 19:53:31;;;;;;;2.20;1.23;;;13.10;75.60;;;;;;6271446;28;20072;-76
2021/05/18 19:56:37;;;;;;;1.88;1.52;;;13.10;75.80;;;;;;6271111;28;20576;-76
2021/05/18 20:16:38;;;;;;;1.17;1.15;;;13.00;76.60;;;;;;6271068;28;20065;-76
2021/05/18 20:19:41;;;;;;;1.02;0.82;;;13.00;76.70;;;;;;6271604;28;20057;-76
2021/05/18 20:22:43;;;;;;;0.93;0.85;;;13.00;75.60;;;;;;6271013;28;20041;-76
2021/05/18 20:25:45;;;;;;;1.35;1.10;;;13.00;75.10;;;;;;6270815;28;20065;-77
2021/05/18 20:28:47;;;;;;;3.40;0.98;;;13.00;75.10;;;;;;6270485;28;20530;-75
2021/05/18 20:31:48;;;;;;;1.05;0.73;;;13.00;75.80;;;;;;6271330;28;20049;-76
2021/05/18 20:41:31;;;;;;;1.05;0.95;;;13.00;74.90;;;;;;6270598;28;20052;-76
2021/05/18 20:44:32;;;;;;;1.73;1.05;;;13.00;76.30;;;;;;6271986;28;20124;-77
2021/05/18 20:47:34;;;;;;;1.38;1.10;;;12.90;77.60;;;;;;6274235;28;20076;-76
2021/05/18 20:50:35;;;;;;;2.53;1.10;;;12.90;79.50;;;;;;6274646;28;20576;-76